sensor_id;sensor_type;location;lat;lon;timestamp;P1;durP1;ratioP1;P2;durP2;ratioP2
31262;SDS011;17892;52.080;9.006;2022-11-13T00:00:57;2.08;;;0.80;;
31262;SDS011;17892;52.080;9.006;2022-11-13T00:03:44;1.77;;;0.80;;
31262;SDS011;17892;52.080;9.006;2022-11-13T00:06:10;1.77;;;0.70;;
31262;SDS011;17892;52.080;9.006;2022-11-13T00:08:37;2.10;;;0.60;;
31262;SDS011;17892;52.080;9.006;2022-11-13T00:11:07;2.70;;;1.00;;
31262;SDS011;17892;52.080;9.006;2022-11-13T00:13:42;1.58;;;0.65;;
31262;SDS011;17892;52.080;9.006;2022-11-13T00:16:09;2.03;;;0.90;;
31262;SDS011;17892;52.080;9.006;2022-11-13T00:18:38;1.83;;;0.60;;
31262;SDS011;17892;52.080;9.006;2022-11-13T00:21:07;2.05;;;0.85;;
31262;SDS011;17892;52.080;9.006;2022-11-13T00:23:37;2.00;;;0.73;;
31262;SDS011;17892;52.080;9.006;2022-11-13T00:26:04;2.38;;;1.08;;
31262;SDS011;17892;52.080;9.006;2022-11-13T00:28:33;2.38;;;1.40;;
31262;SDS011;17892;52.080;9.006;2022-11-13T00:31:00;2.67;;;0.93;;
31262;SDS011;17892;52.080;9.006;2022-11-13T00:33:27;1.67;;;0.68;;
31262;SDS011;17892;52.080;9.006;2022-11-13T00:35:53;1.52;;;0.57;;
31262;SDS011;17892;52.080;9.006;2022-11-13T00:38:19;1.50;;;0.65;;
31262;SDS011;17892;52.080;9.006;2022-11-13T00:40:44;1.83;;;0.90;;
31262;SDS011;17892;52.080;9.006;2022-11-13T00:43:10;1.58;;;0.70;;
31262;SDS011;17892;52.080;9.006;2022-11-13T00:45:36;1.27;;;0.50;;
31262;SDS011;17892;52.080;9.006;2022-11-13T00:48:02;1.55;;;0.63;;
31262;SDS011;17892;52.080;9.006;2022-11-13T00:50:27;2.17;;;0.77;;
31262;SDS011;17892;52.080;9.006;2022-11-13T00:52:53;1.40;;;0.60;;
31262;SDS011;17892;52.080;9.006;2022-11-13T00:55:19;1.58;;;0.70;;
31262;SDS011;17892;52.080;9.006;2022-11-13T00:57:44;1.42;;;0.68;;
31262;SDS011;17892;52.080;9.006;2022-11-13T01:00:10;1.42;;;0.63;;
31262;SDS011;17892;52.080;9.006;2022-11-13T01:02:36;2.05;;;0.70;;
31262;SDS011;17892;52.080;9.006;2022-11-13T01:05:02;1.50;;;0.63;;
31262;SDS011;17892;52.080;9.006;2022-11-13T01:07:28;2.65;;;0.63;;
31262;SDS011;17892;52.080;9.006;2022-11-13T01:09:54;1.58;;;0.60;;
31262;SDS011;17892;52.080;9.006;2022-11-13T01:12:20;1.88;;;0.93;;
31262;SDS011;17892;52.080;9.006;2022-11-13T01:14:45;1.42;;;0.55;;
31262;SDS011;17892;52.080;9.006;2022-11-13T01:17:11;1.80;;;0.80;;
31262;SDS011;17892;52.080;9.006;2022-11-13T01:19:37;1.30;;;0.50;;
31262;SDS011;17892;52.080;9.006;2022-11-13T01:22:02;2.42;;;0.70;;
31262;SDS011;17892;52.080;9.006;2022-11-13T01:24:28;1.80;;;0.80;;
31262;SDS011;17892;52.080;9.006;2022-11-13T01:26:55;1.52;;;0.60;;
31262;SDS011;17892;52.080;9.006;2022-11-13T01:29:21;2.50;;;0.98;;
31262;SDS011;17892;52.080;9.006;2022-11-13T01:31:47;1.45;;;0.68;;
31262;SDS011;17892;52.080;9.006;2022-11-13T01:34:12;1.92;;;0.88;;
31262;SDS011;17892;52.080;9.006;2022-11-13T01:36:38;1.90;;;0.80;;
31262;SDS011;17892;52.080;9.006;2022-11-13T01:39:04;1.77;;;0.75;;
31262;SDS011;17892;52.080;9.006;2022-11-13T01:41:31;1.63;;;0.70;;
31262;SDS011;17892;52.080;9.006;2022-11-13T01:43:58;1.92;;;1.00;;
31262;SDS011;17892;52.080;9.006;2022-11-13T01:46:29;1.85;;;0.80;;
31262;SDS011;17892;52.080;9.006;2022-11-13T01:51:26;1.67;;;0.57;;
31262;SDS011;17892;52.080;9.006;2022-11-13T01:54:00;2.20;;;0.80;;
31262;SDS011;17892;52.080;9.006;2022-11-13T01:56:31;2.00;;;0.90;;
31262;SDS011;17892;52.080;9.006;2022-11-13T01:59:01;1.95;;;0.70;;
31262;SDS011;17892;52.080;9.006;2022-11-13T02:01:33;2.10;;;0.73;;
31262;SDS011;17892;52.080;9.006;2022-11-13T02:03:59;2.45;;;1.20;;
31262;SDS011;17892;52.080;9.006;2022-11-13T02:06:26;2.65;;;1.10;;
31262;SDS011;17892;52.080;9.006;2022-11-13T02:08:57;1.83;;;1.10;;
31262;SDS011;17892;52.080;9.006;2022-11-13T02:11:23;1.90;;;0.80;;
31262;SDS011;17892;52.080;9.006;2022-11-13T02:13:49;2.40;;;0.80;;
31262;SDS011;17892;52.080;9.006;2022-11-13T02:16:15;2.45;;;0.80;;
31262;SDS011;17892;52.080;9.006;2022-11-13T02:18:42;1.75;;;0.68;;
31262;SDS011;17892;52.080;9.006;2022-11-13T02:26:50;1.67;;;0.80;;
31262;SDS011;17892;52.080;9.006;2022-11-13T02:29:18;1.35;;;0.60;;
31262;SDS011;17892;52.080;9.006;2022-11-13T02:31:44;1.92;;;0.93;;
31262;SDS011;17892;52.080;9.006;2022-11-13T02:34:09;1.73;;;0.80;;
31262;SDS011;17892;52.080;9.006;2022-11-13T02:36:35;2.10;;;0.75;;
31262;SDS011;17892;52.080;9.006;2022-11-13T02:39:03;2.70;;;0.90;;
31262;SDS011;17892;52.080;9.006;2022-11-13T02:41:32;2.20;;;0.77;;
31262;SDS011;17892;52.080;9.006;2022-11-13T02:43:58;2.17;;;0.70;;
31262;SDS011;17892;52.080;9.006;2022-11-13T02:46:23;2.65;;;0.80;;
31262;SDS011;17892;52.080;9.006;2022-11-13T02:48:49;1.98;;;0.75;;
31262;SDS011;17892;52.080;9.006;2022-11-13T02:51:15;1.50;;;0.70;;
31262;SDS011;17892;52.080;9.006;2022-11-13T02:53:41;2.15;;;0.93;;
31262;SDS011;17892;52.080;9.006;2022-11-13T02:56:06;2.15;;;0.80;;
31262;SDS011;17892;52.080;9.006;2022-11-13T02:58:32;2.78;;;1.00;;
31262;SDS011;17892;52.080;9.006;2022-11-13T03:00:59;2.33;;;0.80;;
31262;SDS011;17892;52.080;9.006;2022-11-13T03:03:27;2.10;;;0.80;;
31262;SDS011;17892;52.080;9.006;2022-11-13T03:05:53;2.40;;;0.90;;
31262;SDS011;17892;52.080;9.006;2022-11-13T03:08:19;3.42;;;0.90;;
31262;SDS011;17892;52.080;9.006;2022-11-13T03:10:45;1.92;;;0.70;;
31262;SDS011;17892;52.080;9.006;2022-11-13T03:13:11;1.88;;;0.60;;
31262;SDS011;17892;52.080;9.006;2022-11-13T03:15:37;2.30;;;0.70;;
31262;SDS011;17892;52.080;9.006;2022-11-13T03:18:03;2.13;;;0.55;;
31262;SDS011;17892;52.080;9.006;2022-11-13T03:20:29;1.80;;;0.70;;
31262;SDS011;17892;52.080;9.006;2022-11-13T03:22:56;1.80;;;0.70;;
31262;SDS011;17892;52.080;9.006;2022-11-13T03:25:21;2.17;;;0.60;;
31262;SDS011;17892;52.080;9.006;2022-11-13T03:27:47;1.85;;;0.80;;
31262;SDS011;17892;52.080;9.006;2022-11-13T03:30:13;1.70;;;0.73;;
31262;SDS011;17892;52.080;9.006;2022-11-13T03:32:38;1.92;;;0.82;;
31262;SDS011;17892;52.080;9.006;2022-11-13T03:35:04;2.22;;;0.85;;
31262;SDS011;17892;52.080;9.006;2022-11-13T03:37:31;2.28;;;0.80;;
31262;SDS011;17892;52.080;9.006;2022-11-13T03:39:56;1.45;;;0.60;;
31262;SDS011;17892;52.080;9.006;2022-11-13T03:42:22;1.30;;;0.50;;
31262;SDS011;17892;52.080;9.006;2022-11-13T03:44:48;1.52;;;0.60;;
31262;SDS011;17892;52.080;9.006;2022-11-13T03:47:14;1.75;;;0.60;;
31262;SDS011;17892;52.080;9.006;2022-11-13T03:49:40;1.50;;;0.40;;
31262;SDS011;17892;52.080;9.006;2022-11-13T03:52:05;2.03;;;0.43;;
31262;SDS011;17892;52.080;9.006;2022-11-13T03:54:31;1.05;;;0.40;;
31262;SDS011;17892;52.080;9.006;2022-11-13T03:56:57;0.98;;;0.47;;
31262;SDS011;17892;52.080;9.006;2022-11-13T03:59:22;0.88;;;0.40;;
31262;SDS011;17892;52.080;9.006;2022-11-13T04:01:48;1.00;;;0.43;;
31262;SDS011;17892;52.080;9.006;2022-11-13T04:04:14;1.15;;;0.47;;
31262;SDS011;17892;52.080;9.006;2022-11-13T04:06:40;0.85;;;0.38;;
31262;SDS011;17892;52.080;9.006;2022-11-13T04:09:06;0.70;;;0.30;;
31262;SDS011;17892;52.080;9.006;2022-11-13T04:11:32;0.43;;;0.30;;
31262;SDS011;17892;52.080;9.006;2022-11-13T04:13:58;1.63;;;0.40;;
31262;SDS011;17892;52.080;9.006;2022-11-13T04:16:24;1.75;;;0.38;;
31262;SDS011;17892;52.080;9.006;2022-11-13T04:18:49;0.65;;;0.30;;
31262;SDS011;17892;52.080;9.006;2022-11-13T04:21:15;0.47;;;0.40;;
31262;SDS011;17892;52.080;9.006;2022-11-13T04:23:41;1.08;;;0.30;;
31262;SDS011;17892;52.080;9.006;2022-11-13T04:26:07;0.95;;;0.25;;
31262;SDS011;17892;52.080;9.006;2022-11-13T04:28:32;1.80;;;0.40;;
31262;SDS011;17892;52.080;9.006;2022-11-13T04:30:58;0.73;;;0.25;;
31262;SDS011;17892;52.080;9.006;2022-11-13T04:33:24;0.40;;;0.20;;
31262;SDS011;17892;52.080;9.006;2022-11-13T04:35:49;0.93;;;0.35;;
31262;SDS011;17892;52.080;9.006;2022-11-13T04:38:15;0.50;;;0.20;;
31262;SDS011;17892;52.080;9.006;2022-11-13T04:40:41;0.38;;;0.22;;
31262;SDS011;17892;52.080;9.006;2022-11-13T04:43:07;2.05;;;0.40;;
31262;SDS011;17892;52.080;9.006;2022-11-13T04:45:33;0.90;;;0.30;;
31262;SDS011;17892;52.080;9.006;2022-11-13T04:47:59;0.55;;;0.15;;
31262;SDS011;17892;52.080;9.006;2022-11-13T04:50:25;0.85;;;0.35;;
31262;SDS011;17892;52.080;9.006;2022-11-13T04:52:51;0.68;;;0.22;;
31262;SDS011;17892;52.080;9.006;2022-11-13T04:55:16;0.77;;;0.28;;
31262;SDS011;17892;52.080;9.006;2022-11-13T04:57:42;0.50;;;0.20;;
31262;SDS011;17892;52.080;9.006;2022-11-13T05:00:08;0.40;;;0.20;;
31262;SDS011;17892;52.080;9.006;2022-11-13T05:02:34;0.65;;;0.20;;
31262;SDS011;17892;52.080;9.006;2022-11-13T05:05:01;0.65;;;0.20;;
31262;SDS011;17892;52.080;9.006;2022-11-13T05:07:27;0.80;;;0.20;;
31262;SDS011;17892;52.080;9.006;2022-11-13T05:09:53;0.82;;;0.30;;
31262;SDS011;17892;52.080;9.006;2022-11-13T05:12:19;1.17;;;0.30;;
31262;SDS011;17892;52.080;9.006;2022-11-13T05:14:45;0.45;;;0.30;;
31262;SDS011;17892;52.080;9.006;2022-11-13T05:17:11;1.13;;;0.40;;
31262;SDS011;17892;52.080;9.006;2022-11-13T05:19:37;0.85;;;0.30;;
31262;SDS011;17892;52.080;9.006;2022-11-13T05:22:04;1.08;;;0.40;;
31262;SDS011;17892;52.080;9.006;2022-11-13T05:24:30;1.13;;;0.40;;
31262;SDS011;17892;52.080;9.006;2022-11-13T05:26:56;0.90;;;0.30;;
31262;SDS011;17892;52.080;9.006;2022-11-13T05:29:22;0.63;;;0.30;;
31262;SDS011;17892;52.080;9.006;2022-11-13T05:31:48;0.75;;;0.30;;
31262;SDS011;17892;52.080;9.006;2022-11-13T05:34:14;1.55;;;0.38;;
31262;SDS011;17892;52.080;9.006;2022-11-13T05:36:39;1.05;;;0.43;;
31262;SDS011;17892;52.080;9.006;2022-11-13T05:39:05;1.45;;;0.57;;
31262;SDS011;17892;52.080;9.006;2022-11-13T05:41:31;1.30;;;0.40;;
31262;SDS011;17892;52.080;9.006;2022-11-13T05:43:57;1.27;;;0.40;;
31262;SDS011;17892;52.080;9.006;2022-11-13T05:46:24;1.33;;;0.45;;
31262;SDS011;17892;52.080;9.006;2022-11-13T05:48:53;1.95;;;0.60;;
31262;SDS011;17892;52.080;9.006;2022-11-13T05:51:28;1.05;;;0.45;;
31262;SDS011;17892;52.080;9.006;2022-11-13T05:53:57;1.33;;;0.50;;
31262;SDS011;17892;52.080;9.006;2022-11-13T05:58:53;0.93;;;0.45;;
31262;SDS011;17892;52.080;9.006;2022-11-13T06:01:21;0.98;;;0.32;;
31262;SDS011;17892;52.080;9.006;2022-11-13T06:03:49;1.10;;;0.43;;
31262;SDS011;17892;52.080;9.006;2022-11-13T06:06:16;1.02;;;0.40;;
31262;SDS011;17892;52.080;9.006;2022-11-13T06:08:44;1.90;;;0.50;;
31262;SDS011;17892;52.080;9.006;2022-11-13T06:11:18;0.93;;;0.30;;
31262;SDS011;17892;52.080;9.006;2022-11-13T06:13:46;1.42;;;0.50;;
31262;SDS011;17892;52.080;9.006;2022-11-13T06:16:14;1.20;;;0.50;;
31262;SDS011;17892;52.080;9.006;2022-11-13T06:18:46;1.08;;;0.50;;
31262;SDS011;17892;52.080;9.006;2022-11-13T06:21:15;1.13;;;0.57;;
31262;SDS011;17892;52.080;9.006;2022-11-13T06:23:46;0.90;;;0.40;;
31262;SDS011;17892;52.080;9.006;2022-11-13T06:26:17;1.35;;;0.50;;
31262;SDS011;17892;52.080;9.006;2022-11-13T06:28:46;1.17;;;0.50;;
31262;SDS011;17892;52.080;9.006;2022-11-13T06:31:13;1.20;;;0.43;;
31262;SDS011;17892;52.080;9.006;2022-11-13T06:33:46;0.77;;;0.38;;
31262;SDS011;17892;52.080;9.006;2022-11-13T06:36:13;0.93;;;0.40;;
31262;SDS011;17892;52.080;9.006;2022-11-13T06:38:45;1.17;;;0.52;;
31262;SDS011;17892;52.080;9.006;2022-11-13T06:41:12;0.85;;;0.40;;
31262;SDS011;17892;52.080;9.006;2022-11-13T06:43:40;1.13;;;0.38;;
31262;SDS011;17892;52.080;9.006;2022-11-13T06:46:10;1.00;;;0.50;;
31262;SDS011;17892;52.080;9.006;2022-11-13T06:48:40;1.45;;;0.40;;
31262;SDS011;17892;52.080;9.006;2022-11-13T06:51:08;0.75;;;0.45;;
31262;SDS011;17892;52.080;9.006;2022-11-13T06:53:38;1.52;;;0.60;;
31262;SDS011;17892;52.080;9.006;2022-11-13T06:56:04;1.42;;;0.50;;
31262;SDS011;17892;52.080;9.006;2022-11-13T06:58:31;1.60;;;0.50;;
31262;SDS011;17892;52.080;9.006;2022-11-13T07:00:57;1.35;;;0.52;;
31262;SDS011;17892;52.080;9.006;2022-11-13T07:03:34;0.75;;;0.38;;
31262;SDS011;17892;52.080;9.006;2022-11-13T07:06:00;1.23;;;0.45;;
31262;SDS011;17892;52.080;9.006;2022-11-13T07:08:29;0.93;;;0.40;;
31262;SDS011;17892;52.080;9.006;2022-11-13T07:10:55;0.65;;;0.30;;
31262;SDS011;17892;52.080;9.006;2022-11-13T07:13:22;0.50;;;0.22;;
31262;SDS011;17892;52.080;9.006;2022-11-13T07:15:48;0.45;;;0.20;;
31262;SDS011;17892;52.080;9.006;2022-11-13T07:18:14;1.08;;;0.40;;
31262;SDS011;17892;52.080;9.006;2022-11-13T07:20:40;0.80;;;0.30;;
31262;SDS011;17892;52.080;9.006;2022-11-13T07:23:06;0.85;;;0.40;;
31262;SDS011;17892;52.080;9.006;2022-11-13T07:25:32;2.55;;;0.45;;
31262;SDS011;17892;52.080;9.006;2022-11-13T07:27:58;0.85;;;0.30;;
31262;SDS011;17892;52.080;9.006;2022-11-13T07:30:24;1.27;;;0.35;;
31262;SDS011;17892;52.080;9.006;2022-11-13T07:32:50;1.33;;;0.75;;
31262;SDS011;17892;52.080;9.006;2022-11-13T07:35:16;0.50;;;0.30;;
31262;SDS011;17892;52.080;9.006;2022-11-13T07:37:43;0.73;;;0.30;;
31262;SDS011;17892;52.080;9.006;2022-11-13T07:40:09;1.23;;;0.35;;
31262;SDS011;17892;52.080;9.006;2022-11-13T07:42:36;0.75;;;0.35;;
31262;SDS011;17892;52.080;9.006;2022-11-13T07:45:03;0.40;;;0.20;;
31262;SDS011;17892;52.080;9.006;2022-11-13T07:47:29;0.82;;;0.35;;
31262;SDS011;17892;52.080;9.006;2022-11-13T07:49:55;1.13;;;0.40;;
31262;SDS011;17892;52.080;9.006;2022-11-13T07:52:21;1.17;;;0.30;;
31262;SDS011;17892;52.080;9.006;2022-11-13T07:54:46;0.85;;;0.30;;
31262;SDS011;17892;52.080;9.006;2022-11-13T07:57:12;0.80;;;0.35;;
31262;SDS011;17892;52.080;9.006;2022-11-13T07:59:39;1.67;;;0.32;;
31262;SDS011;17892;52.080;9.006;2022-11-13T08:02:05;0.70;;;0.30;;
31262;SDS011;17892;52.080;9.006;2022-11-13T08:04:32;0.52;;;0.20;;
31262;SDS011;17892;52.080;9.006;2022-11-13T08:06:58;0.60;;;0.35;;
31262;SDS011;17892;52.080;9.006;2022-11-13T08:09:23;0.55;;;0.30;;
31262;SDS011;17892;52.080;9.006;2022-11-13T08:11:49;0.82;;;0.40;;
31262;SDS011;17892;52.080;9.006;2022-11-13T08:14:15;1.40;;;0.50;;
31262;SDS011;17892;52.080;9.006;2022-11-13T08:16:40;1.65;;;1.30;;
31262;SDS011;17892;52.080;9.006;2022-11-13T08:19:06;0.50;;;0.20;;
31262;SDS011;17892;52.080;9.006;2022-11-13T08:21:33;0.75;;;0.30;;
31262;SDS011;17892;52.080;9.006;2022-11-13T08:23:59;0.98;;;0.40;;
31262;SDS011;17892;52.080;9.006;2022-11-13T08:26:25;0.70;;;0.30;;
31262;SDS011;17892;52.080;9.006;2022-11-13T08:28:51;1.45;;;0.60;;
31262;SDS011;17892;52.080;9.006;2022-11-13T08:31:16;1.77;;;0.68;;
31262;SDS011;17892;52.080;9.006;2022-11-13T08:33:42;1.42;;;0.60;;
31262;SDS011;17892;52.080;9.006;2022-11-13T08:36:08;1.60;;;0.57;;
31262;SDS011;17892;52.080;9.006;2022-11-13T08:38:35;1.15;;;0.60;;
31262;SDS011;17892;52.080;9.006;2022-11-13T08:41:02;1.27;;;0.47;;
31262;SDS011;17892;52.080;9.006;2022-11-13T08:43:29;1.38;;;0.50;;
31262;SDS011;17892;52.080;9.006;2022-11-13T08:45:55;0.98;;;0.47;;
31262;SDS011;17892;52.080;9.006;2022-11-13T08:48:21;1.80;;;0.68;;
31262;SDS011;17892;52.080;9.006;2022-11-13T08:50:52;2.13;;;0.68;;
31262;SDS011;17892;52.080;9.006;2022-11-13T08:53:19;1.45;;;0.45;;
31262;SDS011;17892;52.080;9.006;2022-11-13T08:55:46;1.38;;;0.60;;
31262;SDS011;17892;52.080;9.006;2022-11-13T08:58:12;0.77;;;0.40;;
31262;SDS011;17892;52.080;9.006;2022-11-13T09:00:37;1.50;;;0.52;;
31262;SDS011;17892;52.080;9.006;2022-11-13T09:03:03;1.25;;;0.50;;
31262;SDS011;17892;52.080;9.006;2022-11-13T09:05:29;1.80;;;0.63;;
31262;SDS011;17892;52.080;9.006;2022-11-13T09:07:56;1.30;;;0.60;;
31262;SDS011;17892;52.080;9.006;2022-11-13T09:10:24;1.13;;;0.40;;
31262;SDS011;17892;52.080;9.006;2022-11-13T09:13:00;0.85;;;0.40;;
31262;SDS011;17892;52.080;9.006;2022-11-13T09:15:29;1.08;;;0.40;;
31262;SDS011;17892;52.080;9.006;2022-11-13T09:17:59;0.82;;;0.30;;
31262;SDS011;17892;52.080;9.006;2022-11-13T09:20:27;1.65;;;0.75;;
31262;SDS011;17892;52.080;9.006;2022-11-13T09:25:30;1.40;;;0.60;;
31262;SDS011;17892;52.080;9.006;2022-11-13T09:27:59;1.52;;;0.60;;
31262;SDS011;17892;52.080;9.006;2022-11-13T09:30:26;1.08;;;0.50;;
31262;SDS011;17892;52.080;9.006;2022-11-13T09:32:53;1.10;;;0.40;;
31262;SDS011;17892;52.080;9.006;2022-11-13T09:35:22;1.52;;;0.57;;
31262;SDS011;17892;52.080;9.006;2022-11-13T09:38:02;1.08;;;0.47;;
31262;SDS011;17892;52.080;9.006;2022-11-13T09:40:33;1.30;;;0.50;;
31262;SDS011;17892;52.080;9.006;2022-11-13T09:43:05;1.40;;;0.63;;
31262;SDS011;17892;52.080;9.006;2022-11-13T09:45:39;2.25;;;0.80;;
31262;SDS011;17892;52.080;9.006;2022-11-13T09:48:09;1.20;;;0.70;;
31262;SDS011;17892;52.080;9.006;2022-11-13T09:50:54;1.48;;;0.75;;
31262;SDS011;17892;52.080;9.006;2022-11-13T09:53:21;2.47;;;0.90;;
31262;SDS011;17892;52.080;9.006;2022-11-13T09:55:54;1.30;;;0.60;;
31262;SDS011;17892;52.080;9.006;2022-11-13T09:58:48;0.98;;;0.60;;
31262;SDS011;17892;52.080;9.006;2022-11-13T10:01:39;1.90;;;0.82;;
31262;SDS011;17892;52.080;9.006;2022-11-13T10:04:11;1.58;;;0.70;;
31262;SDS011;17892;52.080;9.006;2022-11-13T10:06:53;1.90;;;0.85;;
31262;SDS011;17892;52.080;9.006;2022-11-13T10:09:54;1.50;;;0.63;;
31262;SDS011;17892;52.080;9.006;2022-11-13T10:12:29;1.30;;;0.68;;
31262;SDS011;17892;52.080;9.006;2022-11-13T10:14:59;2.00;;;0.80;;
31262;SDS011;17892;52.080;9.006;2022-11-13T10:17:41;1.40;;;0.73;;
31262;SDS011;17892;52.080;9.006;2022-11-13T10:20:23;0.82;;;0.43;;
31262;SDS011;17892;52.080;9.006;2022-11-13T10:25:39;1.55;;;0.60;;
31262;SDS011;17892;52.080;9.006;2022-11-13T10:28:22;1.83;;;0.65;;
31262;SDS011;17892;52.080;9.006;2022-11-13T10:30:50;1.02;;;0.40;;
31262;SDS011;17892;52.080;9.006;2022-11-13T10:33:17;1.55;;;0.68;;
31262;SDS011;17892;52.080;9.006;2022-11-13T10:35:47;1.55;;;0.65;;
31262;SDS011;17892;52.080;9.006;2022-11-13T10:43:51;1.48;;;0.50;;
31262;SDS011;17892;52.080;9.006;2022-11-13T10:46:31;1.00;;;0.50;;
31262;SDS011;17892;52.080;9.006;2022-11-13T10:48:57;0.80;;;0.40;;
31262;SDS011;17892;52.080;9.006;2022-11-13T10:51:36;1.50;;;0.50;;
31262;SDS011;17892;52.080;9.006;2022-11-13T10:56:56;1.90;;;0.55;;
31262;SDS011;17892;52.080;9.006;2022-11-13T10:59:42;1.13;;;0.43;;
31262;SDS011;17892;52.080;9.006;2022-11-13T11:02:22;1.50;;;0.60;;
31262;SDS011;17892;52.080;9.006;2022-11-13T11:05:04;1.55;;;0.60;;
31262;SDS011;17892;52.080;9.006;2022-11-13T11:07:40;1.42;;;0.43;;
31262;SDS011;17892;52.080;9.006;2022-11-13T11:10:29;1.35;;;0.50;;
31262;SDS011;17892;52.080;9.006;2022-11-13T11:13:04;1.70;;;0.63;;
31262;SDS011;17892;52.080;9.006;2022-11-13T11:15:41;1.52;;;0.60;;
31262;SDS011;17892;52.080;9.006;2022-11-13T11:18:29;1.98;;;0.60;;
31262;SDS011;17892;52.080;9.006;2022-11-13T11:21:26;1.42;;;0.52;;
31262;SDS011;17892;52.080;9.006;2022-11-13T11:24:03;2.47;;;1.00;;
31262;SDS011;17892;52.080;9.006;2022-11-13T11:29:43;1.38;;;0.55;;
31262;SDS011;17892;52.080;9.006;2022-11-13T11:32:41;1.40;;;0.50;;
31262;SDS011;17892;52.080;9.006;2022-11-13T11:35:26;1.60;;;0.60;;
31262;SDS011;17892;52.080;9.006;2022-11-13T11:38:10;1.65;;;0.55;;
31262;SDS011;17892;52.080;9.006;2022-11-13T11:40:49;1.15;;;0.50;;
31262;SDS011;17892;52.080;9.006;2022-11-13T11:46:12;1.38;;;0.60;;
31262;SDS011;17892;52.080;9.006;2022-11-13T11:48:48;1.45;;;0.70;;
31262;SDS011;17892;52.080;9.006;2022-11-13T11:51:18;1.42;;;0.60;;
31262;SDS011;17892;52.080;9.006;2022-11-13T11:57:09;1.08;;;0.47;;
31262;SDS011;17892;52.080;9.006;2022-11-13T12:00:19;1.40;;;0.68;;
31262;SDS011;17892;52.080;9.006;2022-11-13T12:02:51;1.25;;;0.50;;
31262;SDS011;17892;52.080;9.006;2022-11-13T12:11:32;1.50;;;0.55;;
31262;SDS011;17892;52.080;9.006;2022-11-13T12:34:43;2.30;;;0.75;;
31262;SDS011;17892;52.080;9.006;2022-11-13T12:46:19;1.67;;;0.63;;
31262;SDS011;17892;52.080;9.006;2022-11-13T12:48:46;2.33;;;0.80;;
31262;SDS011;17892;52.080;9.006;2022-11-13T12:51:16;2.00;;;0.80;;
31262;SDS011;17892;52.080;9.006;2022-11-13T13:01:25;2.28;;;1.00;;
31262;SDS011;17892;52.080;9.006;2022-11-13T13:12:10;2.08;;;0.95;;
31262;SDS011;17892;52.080;9.006;2022-11-13T13:17:45;1.60;;;0.80;;
31262;SDS011;17892;52.080;9.006;2022-11-13T13:22:37;2.15;;;0.90;;
31262;SDS011;17892;52.080;9.006;2022-11-13T13:25:06;2.20;;;0.95;;
31262;SDS011;17892;52.080;9.006;2022-11-13T13:27:56;1.60;;;0.80;;
31262;SDS011;17892;52.080;9.006;2022-11-13T13:30:51;2.03;;;0.90;;
31262;SDS011;17892;52.080;9.006;2022-11-13T13:33:50;1.30;;;0.75;;
31262;SDS011;17892;52.080;9.006;2022-11-13T13:39:52;2.00;;;0.90;;
31262;SDS011;17892;52.080;9.006;2022-11-13T13:48:12;2.42;;;1.20;;
31262;SDS011;17892;52.080;9.006;2022-11-13T13:50:44;2.10;;;1.10;;
31262;SDS011;17892;52.080;9.006;2022-11-13T13:53:13;2.25;;;1.23;;
31262;SDS011;17892;52.080;9.006;2022-11-13T13:55:47;2.25;;;1.05;;
31262;SDS011;17892;52.080;9.006;2022-11-13T13:58:18;2.53;;;1.00;;
31262;SDS011;17892;52.080;9.006;2022-11-13T14:01:11;1.77;;;0.80;;
31262;SDS011;17892;52.080;9.006;2022-11-13T14:03:40;2.10;;;1.00;;
31262;SDS011;17892;52.080;9.006;2022-11-13T14:06:13;2.47;;;1.17;;
31262;SDS011;17892;52.080;9.006;2022-11-13T14:08:45;2.30;;;1.00;;
31262;SDS011;17892;52.080;9.006;2022-11-13T14:11:25;2.40;;;1.02;;
31262;SDS011;17892;52.080;9.006;2022-11-13T14:13:53;2.20;;;1.05;;
31262;SDS011;17892;52.080;9.006;2022-11-13T14:16:20;3.00;;;1.40;;
31262;SDS011;17892;52.080;9.006;2022-11-13T14:18:45;2.47;;;1.10;;
31262;SDS011;17892;52.080;9.006;2022-11-13T14:21:20;3.30;;;1.33;;
31262;SDS011;17892;52.080;9.006;2022-11-13T14:23:49;2.90;;;1.40;;
31262;SDS011;17892;52.080;9.006;2022-11-13T14:26:16;2.88;;;1.35;;
31262;SDS011;17892;52.080;9.006;2022-11-13T14:31:27;2.75;;;1.48;;
31262;SDS011;17892;52.080;9.006;2022-11-13T14:33:58;3.08;;;1.67;;
31262;SDS011;17892;52.080;9.006;2022-11-13T14:36:35;3.45;;;1.65;;
31262;SDS011;17892;52.080;9.006;2022-11-13T14:39:02;3.50;;;1.70;;
31262;SDS011;17892;52.080;9.006;2022-11-13T14:41:32;3.17;;;1.90;;
31262;SDS011;17892;52.080;9.006;2022-11-13T14:44:27;3.65;;;1.60;;
31262;SDS011;17892;52.080;9.006;2022-11-13T14:46:59;3.28;;;1.80;;
31262;SDS011;17892;52.080;9.006;2022-11-13T14:49:43;3.10;;;1.48;;
31262;SDS011;17892;52.080;9.006;2022-11-13T14:52:18;2.83;;;1.50;;
31262;SDS011;17892;52.080;9.006;2022-11-13T14:55:04;3.28;;;1.60;;
31262;SDS011;17892;52.080;9.006;2022-11-13T14:57:32;3.20;;;1.85;;
31262;SDS011;17892;52.080;9.006;2022-11-13T15:00:11;5.53;;;2.65;;
31262;SDS011;17892;52.080;9.006;2022-11-13T15:02:40;3.00;;;2.10;;
31262;SDS011;17892;52.080;9.006;2022-11-13T15:05:06;3.53;;;1.70;;
31262;SDS011;17892;52.080;9.006;2022-11-13T15:07:32;3.00;;;1.50;;
31262;SDS011;17892;52.080;9.006;2022-11-13T15:10:04;3.42;;;1.73;;
31262;SDS011;17892;52.080;9.006;2022-11-13T15:12:30;3.78;;;2.17;;
31262;SDS011;17892;52.080;9.006;2022-11-13T15:14:56;4.22;;;2.33;;
31262;SDS011;17892;52.080;9.006;2022-11-13T15:17:22;4.32;;;2.80;;
31262;SDS011;17892;52.080;9.006;2022-11-13T15:19:50;5.13;;;2.63;;
31262;SDS011;17892;52.080;9.006;2022-11-13T15:22:17;3.90;;;2.15;;
31262;SDS011;17892;52.080;9.006;2022-11-13T15:24:44;4.93;;;2.75;;
31262;SDS011;17892;52.080;9.006;2022-11-13T15:27:14;4.20;;;2.80;;
31262;SDS011;17892;52.080;9.006;2022-11-13T15:29:40;4.22;;;2.28;;
31262;SDS011;17892;52.080;9.006;2022-11-13T15:32:08;5.20;;;3.15;;
31262;SDS011;17892;52.080;9.006;2022-11-13T15:34:38;6.43;;;4.03;;
31262;SDS011;17892;52.080;9.006;2022-11-13T15:37:11;6.25;;;3.92;;
31262;SDS011;17892;52.080;9.006;2022-11-13T15:39:39;5.53;;;3.50;;
31262;SDS011;17892;52.080;9.006;2022-11-13T15:42:06;5.85;;;3.40;;
31262;SDS011;17892;52.080;9.006;2022-11-13T15:44:37;8.25;;;4.28;;
31262;SDS011;17892;52.080;9.006;2022-11-13T15:47:03;6.35;;;3.85;;
31262;SDS011;17892;52.080;9.006;2022-11-13T15:49:53;8.02;;;4.30;;
31262;SDS011;17892;52.080;9.006;2022-11-13T15:52:20;6.30;;;4.00;;
31262;SDS011;17892;52.080;9.006;2022-11-13T15:54:47;6.82;;;4.35;;
31262;SDS011;17892;52.080;9.006;2022-11-13T15:57:22;7.65;;;4.68;;
31262;SDS011;17892;52.080;9.006;2022-11-13T15:59:50;8.15;;;5.05;;
31262;SDS011;17892;52.080;9.006;2022-11-13T16:02:16;6.72;;;4.10;;
31262;SDS011;17892;52.080;9.006;2022-11-13T16:04:42;8.82;;;5.13;;
31262;SDS011;17892;52.080;9.006;2022-11-13T16:09:42;10.52;;;6.30;;
31262;SDS011;17892;52.080;9.006;2022-11-13T16:12:09;9.65;;;5.85;;
31262;SDS011;17892;52.080;9.006;2022-11-13T16:14:36;9.13;;;5.72;;
31262;SDS011;17892;52.080;9.006;2022-11-13T16:17:04;9.52;;;5.22;;
31262;SDS011;17892;52.080;9.006;2022-11-13T16:19:43;12.57;;;6.88;;
31262;SDS011;17892;52.080;9.006;2022-11-13T16:22:17;11.40;;;6.75;;
31262;SDS011;17892;52.080;9.006;2022-11-13T16:24:45;12.23;;;7.40;;
31262;SDS011;17892;52.080;9.006;2022-11-13T16:27:14;11.52;;;6.97;;
31262;SDS011;17892;52.080;9.006;2022-11-13T16:29:52;10.48;;;6.75;;
31262;SDS011;17892;52.080;9.006;2022-11-13T16:32:18;14.60;;;8.25;;
31262;SDS011;17892;52.080;9.006;2022-11-13T16:34:45;15.88;;;8.40;;
31262;SDS011;17892;52.080;9.006;2022-11-13T16:37:14;15.85;;;8.82;;
31262;SDS011;17892;52.080;9.006;2022-11-13T16:39:45;13.60;;;6.88;;
31262;SDS011;17892;52.080;9.006;2022-11-13T16:42:12;12.88;;;7.25;;
31262;SDS011;17892;52.080;9.006;2022-11-13T16:44:39;11.57;;;6.13;;
31262;SDS011;17892;52.080;9.006;2022-11-13T16:47:05;14.32;;;8.63;;